Waterflow, New Mexico
Current Conditions -  °F | °C
As of 12:53 AM on Tuesday 21 Oct 2014 (Local Time) from KFMN Reporting Station
Overcast Overcast  
Wind Chill: 55°   Ceiling: 11000
Heat Index: 55°   Visibility: 10mi
Dew Point: 44°   Wind: 8mph
Humidity: 67%   Direction: 100°E
Pressure: 30.13"   Gusts: NA
Location:  36.75°N, 108.45°W
Report Text: KFMN 210653Z AUTO 10007KT 10SM FEW080 OVC110 13/07 A3013 RMK AO2 SLP164 T01280067 402280061
Loading
Personal Weather Stations






























Interactive Weather Map
Tropical Storm Tracking
New forecast layout! Learn more

10-Day Weather Forecast

Advertisements
Track Severe Weather on mobile